Tiempo atmosférico en la estación meteorológica de Camaleño, Fuente De, Cantabria (1090 m.)

Fecha
DESCASC
Temp. máxima en grados centígrados (hora)
DESCASC
Temp. mínima en grados centígrados (hora)
DESCASC
Temp. media en grados centígrados
DESCASC
Racha de viento máxima en m/sg (hora)
DESCASC
Velocidad máxima media en intervalos de 10 minutos(hora)
DESCASC
Precipitaciones diarias en mm
DESCASC
Precipitaciones de 00:00 a 06:00 en mm
DESCASC
Precipitaciones de 06:00 a 12:00 en mm
DESCASC
Precipitaciones de 12:00 a 18:00 en mm
DESCASC
Precipitaciones de 18:00 a 24:00 en mm
DESCASC
17-09-2017 16.4 (17:10) 3.7 (08:10) 10 6.39 (15:20) 2.5 (15:30) 0.4 0 0 0 0.4
16-09-2017 12.9 (13:30) 2.8 (08:00) 7.8 7.5 (14:00) 3.06 (14:00) 1.2 0.2 0.2 0.4 0.4
15-09-2017 12.3 (14:00) 4 (04:10) 8.2 7.78 (16:20) 2.78 (16:30) 2.8 0 0.4 1 1.4
14-09-2017 16.2 (05:10) 7.1 (00:00) 11.7 11.39 (05:00) 3.61 (08:40) 0.4 0 0 0.4 0
13-09-2017 24.3 (15:10) 9.9 (00:00) 17.1 4.72 (16:00) 1.94 (14:50) 0 0 0 0 0
12-09-2017 19.5 (17:30) 8.6 (00:00) 14.1 9.72 (15:20) 3.89 (12:30) 0.2 0.2 0 0 0
11-09-2017 19 (16:20) 10.9 (00:00) 14.9 10.83 (11:30) 4.17 (12:30) 2.4 0.4 0.4 0 1.6
10-09-2017 17.2 (15:40) 5.4 (00:00) 11.3 11.67 (16:30) 4.44 (16:30) 9.4 2.8 0 2.4 4.2
09-09-2017 -- (--) -- (--) -- -- (--) -- (--) -- 1.2 2 -- 11.8
08-09-2017 23.6 (16:50) 6.4 (00:00) 15 3.89 (15:10) 2.22 (17:10) 0 0 0 0 0
07-09-2017 21.7 (17:00) 5.7 (00:00) 13.7 3.89 (17:20) 1.67 (17:20) 0 0 0 0 0
06-09-2017 20.6 (16:00) 10.9 (00:00) 15.8 4.72 (16:10) 1.67 (16:10) 0 0 0 0 0
05-09-2017 23.8 (15:30) 11.7 (00:00) 17.7 4.72 (15:30) 1.94 (16:30) 0 0 0 0 0
04-09-2017 23.3 (15:50) 12.8 (00:00) 18 7.5 (12:00) 3.06 (12:30) 0.4 0.4 0 0 0
03-09-2017 23.2 (14:40) 12.4 (00:00) 17.8 8.33 (08:20) 2.5 (14:10) 3 0 0 0.2 2.8
02-09-2017 22.3 (16:50) 4.9 (00:00) 13.6 4.17 (14:20) 1.67 (14:20) 0 0 0 0 0
01-09-2017 16.3 (17:00) 7.8 (00:00) 12 8.61 (18:30) 2.78 (18:30) 1.8 1.8 0 0 0
31-08-2017 18 (15:10) 9.2 (00:00) 13.6 4.44 (14:40) 1.67 (15:20) 2.4 1.4 0 0 1
30-08-2017 21.7 (14:10) 10 (00:00) 15.9 9.17 (15:10) 3.89 (15:40) 22.4 5.2 0 9.8 7.4
29-08-2017 23.8 (16:20) 11.2 (00:00) 17.5 5 (16:30) 1.94 (00:50) 0.4 0.4 0 0 0
28-08-2017 23.1 (14:40) 13.9 (00:00) 18.5 6.39 (02:40) 3.33 (02:30) 0.6 0 0 0 0.6
27-08-2017 22.1 (18:20) 12.7 (00:00) 17.4 10 (09:20) 4.72 (08:40) 2.6 0.2 1.6 0.8 0
26-08-2017 26.3 (12:50) 12.4 (00:00) 19.3 11.67 (21:10) 3.33 (17:10) 1.4 0 0 0 1.4
25-08-2017 25.3 (16:10) 11.2 (00:00) 18.2 5.83 (13:20) 2.5 (13:20) 0 0 0 0 0
24-08-2017 20.9 (13:30) 13 (00:00) 16.9 5.56 (14:00) 1.94 (13:00) 0 0 0 0 0
23-08-2017 28 (16:40) 14.2 (00:00) 21.1 3.89 (13:00) 1.67 (19:20) 0 0 0 0 0
22-08-2017 30.2 (14:20) 16.1 (00:00) 23.2 5.28 (16:40) 2.5 (16:40) 0 0 0 0 0

Gráficas

Temp. máximas Temp. mínimas Temp. medias Precipitaciones Rachas de viento máximas Velocidades máximas media en intervalos de 10 minutos

Datos horarios

Fecha y hora oficial Temperatura (ºC) Velocidad del viento (km/h) Dirección del viento Racha (km/h) Dirección de racha Precipitación (mm) Presión (hPa) Tendencia (hPa) Humedad (%)
2017-09-20 23:00:00 11.3 0 Calma 4 Sudoeste 0 -- -- 80
2017-09-20 22:00:00 11.8 0 Calma 4 Oeste 0 -- -- 77
2017-09-20 21:00:00 13.1 2 Sudoeste 5 Sudoeste 0 -- -- 74
2017-09-20 20:00:00 14.5 2 Oeste 4 Sudoeste 0 -- -- 74
2017-09-20 19:00:00 16.3 3 Sudoeste 9 Oeste 0 -- -- 63
2017-09-20 18:00:00 21.2 3 Oeste 13 Sudoeste 0 -- -- 50
2017-09-20 17:00:00 23.2 5 Sudoeste 13 Sudoeste 0 -- -- 40
2017-09-20 16:00:00 23.7 4 Sudoeste 13 Sudoeste 0 -- -- 40
2017-09-20 15:00:00 22.9 4 Sudoeste 12 Este 0 -- -- 38
2017-09-20 14:00:00 22.2 5 Sudoeste 12 Oeste 0 -- -- 38
2017-09-20 13:00:00 20.6 3 Este 8 Nordeste 0 -- -- 47
2017-09-20 12:00:00 17.1 3 Este 6 Este 0 -- -- 62
2017-09-20 11:00:00 12.7 0 Calma 3 Nordeste 0 -- -- 76
2017-09-20 10:00:00 10.1 0 Calma 2 Sudoeste 0 -- -- 84
2017-09-20 09:00:00 7.8 0 Calma 4 Noroeste 0 -- -- 92
2017-09-20 08:00:00 7.3 0 Calma 3 Oeste 0 -- -- 92
2017-09-20 07:00:00 7.3 0 Calma -- -- 0 -- -- 94
2017-09-20 06:00:00 7.4 0 Calma -- -- 0 -- -- 95
2017-09-20 05:00:00 7.3 0 Calma -- -- 0 -- -- 95
2017-09-20 04:00:00 7.3 0 Calma -- -- 0 -- -- 95
2017-09-20 03:00:00 7.4 0 Calma -- -- 0 -- -- 96
2017-09-20 02:00:00 8 0 Calma -- -- 0 -- -- 98
2017-09-20 01:00:00 8.2 0 Calma -- -- 0 -- -- 97
2017-09-20 00:00:00 8.6 0 Calma -- -- 0 -- -- 97
2017-09-19 23:00:00 8.9 0 Calma 3 Oeste 0 -- -- 96
2017-09-19 22:00:00 9.4 0 Calma 4 Sudoeste 0 -- -- 94
2017-09-19 21:00:00 10.2 2 Sudoeste 5 Oeste 0 -- -- 91
2017-09-19 20:00:00 11.5 2 Sudoeste 4 Oeste 0 -- -- 88
2017-09-19 19:00:00 13.3 3 Sudoeste 8 Sudoeste 0 -- -- 82
2017-09-19 18:00:00 17.4 4 Sudoeste 10 Sur 0 -- -- 63
2017-09-19 17:00:00 18.3 3 Sudoeste 12 Nordeste 0 -- -- 56
2017-09-19 16:00:00 17.9 5 Sur 13 Sudeste 0 -- -- 55
2017-09-19 15:00:00 17.5 4 Sur 10 Sudoeste 0 -- -- 55
2017-09-19 14:00:00 16.3 3 Sudoeste 13 Este 0 -- -- 60
2017-09-19 13:00:00 14.8 3 Este 12 Este 0 -- -- 65
2017-09-19 12:00:00 11.4 0 Calma 9 Este 0 -- -- 81
2017-09-19 11:00:00 9.1 4 Este 7 Este 0 -- -- 91
2017-09-19 10:00:00 6.4 0 Calma 3 Nordeste 0 -- -- 100
2017-09-19 09:00:00 4.9 0 Calma 2 Oeste 0 -- -- 100
2017-09-19 08:00:00 4.9 0 Calma 4 Sudoeste 0 -- -- 100
2017-09-19 07:00:00 5.1 2 Sudoeste 4 Sudoeste 0 -- -- 100
2017-09-19 06:00:00 5.4 0 Calma 4 Noroeste 0 -- -- 99
2017-09-19 05:00:00 5.7 0 Calma 4 Noroeste 0 -- -- 100
2017-09-19 04:00:00 5.9 0 Calma 4 Oeste 0 -- -- 99
2017-09-19 03:00:00 6.1 0 Calma 5 Sudoeste 0 -- -- 98
2017-09-19 02:00:00 6.5 3 Sudoeste 5 Oeste 0 -- -- 98
2017-09-19 01:00:00 7.1 0 Calma 5 Sudoeste 0 -- -- 96
2017-09-19 00:00:00 7.6 0 Calma 5 Oeste 0 -- -- 94
2017-09-18 23:00:00 8.8 3 Sudoeste 11 Noroeste 0 -- -- 89
2017-09-18 22:00:00 9.9 4 Noroeste 12 Noroeste 0 -- -- 88
2017-09-18 21:00:00 10.6 2 Sudoeste 6 Sudoeste 0 -- -- 89
2017-09-18 20:00:00 12.3 0 Calma 12 Sur 0 -- -- 85
2017-09-18 19:00:00 13.2 2 Sudoeste 12 Sudeste 0 -- -- 84
2017-09-18 18:00:00 13.3 2 Oeste 21 Sur 0 -- -- 87
2017-09-18 17:00:00 13.3 7 Sur 22 Sudeste 0 -- -- 76
2017-09-18 16:00:00 14.3 9 Sur 22 Sur 0 -- -- 72
2017-09-18 15:00:00 14.6 8 Sudoeste 22 Sudoeste 0 -- -- 68
2017-09-18 14:00:00 14.6 5 Sur 15 Sur 0 -- -- 68
2017-09-18 13:00:00 12.9 4 Sur 14 Sudoeste 0 -- -- 77
2017-09-18 12:00:00 11.1 3 Noroeste 20 Sur 0 -- -- 87
2017-09-18 11:00:00 11.4 6 Sudoeste 28 Sur 0 -- -- 80
2017-09-18 10:00:00 10.9 6 Sur 20 Sur 0 -- -- 84
2017-09-18 09:00:00 8.8 0 Calma 4 Oeste 0.2 -- -- 100
2017-09-18 08:00:00 8.7 0 Calma 6 Oeste 0 -- -- 100
2017-09-18 07:00:00 8.5 0 Calma 4 Oeste 1.2 -- -- 100
2017-09-18 06:00:00 8.4 0 Calma 4 Sur 0.6 -- -- 100
2017-09-18 05:00:00 8.3 0 Calma 4 Noroeste 0.2 -- -- 100
2017-09-18 04:00:00 8.4 3 Sudoeste 8 Oeste 0.2 -- -- 100
2017-09-18 03:00:00 8.5 2 Oeste 5 Noroeste 2 -- -- 99
2017-09-18 02:00:00 8.7 0 Calma 4 Sudoeste 1.6 -- -- 99
2017-09-18 01:00:00 8.8 0 Calma 6 Este 2.2 -- -- 98
2017-09-18 00:00:00 9.4 2 Sur 4 Sudoeste 0.4 -- -- 93
2017-09-17 23:00:00 9.7 0 Calma 4 Oeste 0 -- -- 89
2017-09-17 22:00:00 9.9 2 Sudoeste 6 Sudoeste 0 -- -- 87
2017-09-17 21:00:00 10.4 2 Oeste 6 Sudoeste 0 -- -- 84
2017-09-17 20:00:00 11.2 0 Calma 8 Sudoeste 0 -- -- 78
2017-09-17 19:00:00 12.6 2 Oeste 9 Sudoeste 0 -- -- 72
2017-09-17 18:00:00 14.2 4 Oeste 15 Sudoeste 0 -- -- 60
2017-09-17 17:00:00 16.1 4 Sudeste 18 Sur 0 -- -- 46
2017-09-17 16:00:00 15.7 5 Sur 23 Sur 0 -- -- 49
2017-09-17 15:00:00 13.3 6 Sudoeste 21 Sudoeste 0 -- -- 51
2017-09-17 14:00:00 13.4 8 Sudoeste 21 Oeste 0 -- -- 52
2017-09-17 13:00:00 13.3 6 Oeste 18 Sudoeste 0 -- -- 55
2017-09-17 12:00:00 12 6 Sudoeste 20 Oeste 0 -- -- 59
2017-09-17 11:00:00 10 8 Sudoeste 20 Sudoeste 0 -- -- 65
2017-09-17 10:00:00 6.3 0 Calma 6 Oeste 0 -- -- 89
2017-09-17 09:00:00 4.1 0 Calma 6 Oeste 0 -- -- 94
2017-09-17 08:00:00 3.8 2 Oeste 5 Oeste 0 -- -- 94
2017-09-17 07:00:00 3.9 0 Calma 5 Oeste 0 -- -- 94
2017-09-17 06:00:00 4.5 3 Sudoeste 6 Oeste 0 -- -- 92
2017-09-17 05:00:00 4.7 3 Nordeste 13 Sudoeste 0 -- -- 92
2017-09-17 04:00:00 4.6 0 Calma 6 Oeste 0 -- -- 92
2017-09-17 03:00:00 5 0 Calma 6 Oeste 0 -- -- 93
2017-09-17 02:00:00 4.8 2 Oeste 6 Noroeste 0 -- -- 92
2017-09-17 01:00:00 4.9 0 Calma 8 Noroeste 0 -- -- 93
2017-09-17 00:00:00 5.2 2 Oeste 10 Oeste 0 -- -- 93
2017-09-16 23:00:00 5.2 3 Noroeste 7 Oeste 0 -- -- 92
2017-09-16 22:00:00 5.8 2 Sur 7 Oeste 0 -- -- 93
2017-09-16 21:00:00 6.6 3 Sudoeste 10 Oeste 0 -- -- 90
2017-09-16 20:00:00 7.4 4 Sur 17 Oeste 0.2 -- -- 85
2017-09-16 19:00:00 8.2 6 Sur 19 Sudoeste 0.2 -- -- 82
2017-09-16 18:00:00 9.8 3 Sudoeste 20 Oeste 0.4 -- -- 77
2017-09-16 17:00:00 10.9 5 Sudoeste 19 Sudoeste 0 -- -- 60
2017-09-16 16:00:00 11.1 4 Sudeste 22 Oeste 0 -- -- 66
2017-09-16 15:00:00 11.8 6 Oeste 22 Sudoeste 0 -- -- 56
2017-09-16 14:00:00 11.7 11 Oeste 27 Oeste 0 -- -- 61
2017-09-16 13:00:00 10.9 4 Este 18 Sudoeste 0 -- -- 59
2017-09-16 12:00:00 10.2 8 Oeste 23 Sudoeste 0 -- -- 67
2017-09-16 11:00:00 8.6 5 Oeste 21 Noroeste 0 -- -- 71
2017-09-16 10:00:00 6.1 2 Nordeste 5 Este 0.2 -- -- 91
2017-09-16 09:00:00 4.1 2 Noroeste 5 Oeste 0 -- -- 100
2017-09-16 08:00:00 2.8 0 Calma 4 Oeste 0 -- -- 98
2017-09-16 07:00:00 3.6 0 Calma 7 Este 0 -- -- 96
2017-09-16 06:00:00 4 0 Calma 8 Oeste 0 -- -- 96
2017-09-16 05:00:00 4.3 0 Calma 11 Noroeste 0 -- -- 94
2017-09-16 04:00:00 5.6 4 Noroeste 17 Oeste 0 -- -- 88
2017-09-16 03:00:00 4.9 5 Norte 14 Noroeste 0 -- -- 93
2017-09-16 02:00:00 4.7 2 Oeste 5 Oeste 0 -- -- 97
2017-09-16 01:00:00 4.7 2 Sudoeste 6 Oeste 0.2 -- -- 98
2017-09-16 00:00:00 4.7 4 Oeste 6 Oeste 0 -- -- 97
2017-09-15 23:00:00 4.7 2 Oeste 5 Oeste 0.2 -- -- 96
2017-09-15 22:00:00 5.5 3 Oeste 16 Sudoeste 0 -- -- 89
2017-09-15 21:00:00 6.1 6 Oeste 24 Oeste 0 -- -- 75
2017-09-15 20:00:00 5.6 2 Sudoeste 12 Noroeste 0 -- -- 91
2017-09-15 19:00:00 7.2 2 Oeste 14 Este 1.2 -- -- 90
2017-09-15 18:00:00 8.2 2 Sudoeste 22 Este 0.2 -- -- 86
2017-09-15 17:00:00 9.6 3 Sur 28 Este 0.2 -- -- 73
2017-09-15 16:00:00 10.5 5 Norte 23 Este 0.2 -- -- 70
2017-09-15 15:00:00 10.4 7 Este 21 Este 0.4 -- -- 68
2017-09-15 14:00:00 12.3 4 Sur 13 Este 0 -- -- 62
2017-09-15 13:00:00 9.1 3 Sur 8 Sudoeste 0 -- -- 80
2017-09-15 12:00:00 8.3 2 Este 9 Sur 0.2 -- -- 80
2017-09-15 11:00:00 7.9 4 Sur 10 Este 0 -- -- 82
2017-09-15 10:00:00 6.9 2 Sudeste 7 Este 0 -- -- 88
2017-09-15 09:00:00 5.4 3 Sudoeste 6 Este 0 -- -- 98
2017-09-15 08:00:00 5.3 2 Oeste 5 Sudoeste 0 -- -- 96
2017-09-15 07:00:00 5.5 0 Calma 5 Noroeste 0.2 -- -- 96
2017-09-15 06:00:00 5.4 0 Calma 5 Sudoeste 0 -- -- 95
2017-09-15 05:00:00 4.3 0 Calma 5 Sudoeste 0 -- -- 97
2017-09-15 04:00:00 4.1 3 Oeste 5 Sudoeste 0 -- -- 95
2017-09-15 03:00:00 4.9 3 Oeste 5 Sudoeste 0 -- -- 94
2017-09-15 02:00:00 6 3 Sudoeste 5 Oeste 0 -- -- 94
2017-09-15 01:00:00 6.9 0 Calma 4 Sudoeste 0 -- -- 95
2017-09-15 00:00:00 7.1 0 Calma 5 Este 0 -- -- 94
2017-09-14 23:00:00 7.9 0 Calma 6 Sudoeste 0 -- -- 92
2017-09-14 22:00:00 8.2 5 Sudoeste 17 Este 0 -- -- 92
2017-09-14 21:00:00 8.8 6 Sudoeste 13 Sudoeste 0 -- -- 89
2017-09-14 20:00:00 9.9 4 Oeste 12 Sudoeste 0 -- -- 85
2017-09-14 19:00:00 11 4 Oeste 13 Sur 0 -- -- 79
2017-09-14 18:00:00 12.2 4 Oeste 13 Oeste 0 -- -- 73
2017-09-14 17:00:00 12.6 5 Sur 15 Sudoeste 0 -- -- 74
2017-09-14 16:00:00 14.2 4 Sudeste 10 Sudoeste 0 -- -- 64
2017-09-14 15:00:00 11.7 3 Sudeste 12 Este 0.2 -- -- 76
2017-09-14 14:00:00 11.2 2 Noroeste 11 Sudoeste 0.2 -- -- 85
2017-09-14 13:00:00 10.9 4 Sudoeste 17 Oeste 0 -- -- 86
2017-09-14 12:00:00 11.9 4 Este 18 Este 0 -- -- 72
2017-09-14 11:00:00 11.3 3 Este 18 Este 0 -- -- 77
2017-09-14 10:00:00 10.4 4 Este 32 Este 0 -- -- 84
2017-09-14 09:00:00 12.3 2 Sudeste 30 Este 0 -- -- 81
2017-09-14 08:00:00 13.1 3 Sur 10 Este 0 -- -- 93
2017-09-14 07:00:00 13.6 3 Sudoeste 17 Sur 0 -- -- 90
2017-09-14 06:00:00 15 3 Sudoeste 19 Sudoeste 0 -- -- 75
2017-09-14 05:00:00 16.1 10 Norte 41 Norte 0 -- -- 50
2017-09-14 04:00:00 15.6 7 Norte 19 Norte 0 -- -- 39
2017-09-14 03:00:00 12.5 4 Oeste 12 Oeste 0 -- -- 86
2017-09-14 02:00:00 13 2 Oeste 5 Noroeste 0 -- -- 95
2017-09-14 01:00:00 14 0 Calma 4 Sur 0 -- -- 96
2017-09-14 00:00:00 14.2 0 Calma 4 Sudoeste 0 -- -- 96
2017-09-13 23:00:00 14.2 0 Calma 4 Este 0 -- -- 96
2017-09-13 22:00:00 14.4 0 Calma 4 Sur 0 -- -- 92
2017-09-13 21:00:00 15.9 0 Calma 5 Sudoeste 0 -- -- 85
2017-09-13 20:00:00 17.3 3 Sudoeste 8 Sudoeste 0 -- -- 81
2017-09-13 19:00:00 19.5 3 Oeste 12 Sudoeste 0 -- -- 72
2017-09-13 18:00:00 22.8 4 Oeste 12 Sudoeste 0 -- -- 57
2017-09-13 17:00:00 23.9 4 Sur 13 Sudeste 0 -- -- 55
2017-09-13 16:00:00 24.3 5 Sudoeste 17 Sudoeste 0 -- -- 49
2017-09-13 15:00:00 23.7 4 Norte 13 Oeste 0 -- -- 45
2017-09-13 14:00:00 22.9 5 Sur 10 Sudoeste 0 -- -- 46
2017-09-13 13:00:00 21.5 3 Oeste 13 Sudoeste 0 -- -- 50
2017-09-13 12:00:00 19.4 3 Sudeste 10 Sudeste 0 -- -- 57
2017-09-13 11:00:00 16.1 4 Sudeste 8 Sudeste 0 -- -- 67
2017-09-13 10:00:00 12 0 Calma 3 Este 0 -- -- 83
2017-09-13 09:00:00 10.5 0 Calma 3 Noroeste 0 -- -- 88
2017-09-13 08:00:00 10 0 Calma 5 Oeste 0 -- -- 89
2017-09-13 07:00:00 10 0 Calma 4 Noroeste 0 -- -- 90
2017-09-13 06:00:00 10 0 Calma 5 Oeste 0 -- -- 89
2017-09-13 05:00:00 10.3 3 Oeste 6 Noroeste 0 -- -- 88
2017-09-13 04:00:00 10.4 2 Oeste 4 Noroeste 0 -- -- 89
2017-09-13 03:00:00 10.7 0 Calma 5 Este 0 -- -- 87
2017-09-13 02:00:00 11.3 2 Sudoeste 6 Oeste 0 -- -- 85
2017-09-13 01:00:00 11.4 2 Noroeste 5 Sur 0 -- -- 88
2017-09-13 00:00:00 11.8 0 Calma 4 Noroeste 0 -- -- 88
2017-09-12 23:00:00 12.5 0 Calma 8 Sur 0 -- -- 85
2017-09-12 22:00:00 13.3 2 Oeste 14 Sudoeste 0 -- -- 80
2017-09-12 21:00:00 14.6 4 Sudoeste 13 Noroeste 0 -- -- 74
2017-09-12 20:00:00 16.2 5 Oeste 21 Oeste 0 -- -- 63
2017-09-12 19:00:00 17 5 Sudoeste 27 Sur 0 -- -- 60
2017-09-12 18:00:00 18.9 9 Sur 28 Oeste 0 -- -- 53
2017-09-12 17:00:00 19.4 7 Sudoeste 30 Sudoeste 0 -- -- 47
2017-09-12 16:00:00 18.4 12 Sur 35 Sur 0 -- -- 53
2017-09-12 15:00:00 18 8 Sur 26 Sur 0 -- -- 54
2017-09-12 14:00:00 18.3 5 Sudoeste 26 Sudeste 0 -- -- 62
2017-09-12 13:00:00 16.7 10 Sur 30 Noroeste 0 -- -- 65
2017-09-12 12:00:00 15.2 8 Sur 21 Sur 0 -- -- 70
2017-09-12 11:00:00 11.6 3 Noroeste 6 Noroeste 0 -- -- 88
2017-09-12 10:00:00 10.3 0 Calma 4 Oeste 0 -- -- 91
2017-09-12 09:00:00 9.9 0 Calma 14 Sudoeste 0 -- -- 90
2017-09-12 08:00:00 10.1 3 Noroeste 26 Sudoeste 0 -- -- 86
2017-09-12 07:00:00 9.7 4 Este 21 Sur 0 -- -- 90
2017-09-12 06:00:00 8.7 4 Oeste 9 Norte 0 -- -- 95
2017-09-12 05:00:00 8.6 2 Sudoeste 10 Noroeste 0 -- -- 96
2017-09-12 04:00:00 9 3 Oeste 14 Sudoeste 0 -- -- 95
2017-09-12 03:00:00 9.2 3 Noroeste 7 Sudoeste 0 -- -- 96
2017-09-12 02:00:00 9.8 6 Oeste 17 Sudoeste 0 -- -- 91
2017-09-12 01:00:00 10.5 8 Sudoeste 22 Oeste 0.2 -- -- 90
2017-09-12 00:00:00 10.9 4 Oeste 9 Sur 0.6 -- -- 96
2017-09-11 23:00:00 11.5 4 Noroeste 20 Sudoeste 1 -- -- 95
2017-09-11 22:00:00 12.9 8 Sur 19 Sur 0 -- -- 81
2017-09-11 21:00:00 14.4 9 Sur 33 Sur 0 -- -- 72
2017-09-11 20:00:00 15.2 8 Sur 25 Sudoeste 0 -- -- 66
2017-09-11 19:00:00 15.7 7 Sur 22 Sudoeste 0 -- -- 63
2017-09-11 18:00:00 16.9 8 Sudoeste 30 Sudoeste 0 -- -- 55
2017-09-11 17:00:00 18.8 8 Sudoeste 24 Oeste 0 -- -- 44
2017-09-11 16:00:00 18.7 9 Sur 37 Sudoeste 0 -- -- 43
2017-09-11 15:00:00 18 8 Sudeste 33 Sudoeste 0 -- -- 49
2017-09-11 14:00:00 17.6 12 Sudoeste 36 Sur 0 -- -- 55
2017-09-11 13:00:00 16.7 13 Sudoeste 33 Sudoeste 0 -- -- 56
2017-09-11 12:00:00 16.2 12 Oeste 39 Oeste 0 -- -- 62
2017-09-11 11:00:00 15.7 11 Sudoeste 35 Oeste 0 -- -- 57
2017-09-11 10:00:00 14.9 5 Noroeste 25 Oeste 0 -- -- 66
2017-09-11 09:00:00 14 6 Sudoeste 33 Noroeste 0 -- -- 81
2017-09-11 08:00:00 13.2 5 Noroeste 18 Sur 0.2 -- -- 90
2017-09-11 07:00:00 13.6 4 Sur 18 Sudoeste 0.2 -- -- 91
2017-09-11 06:00:00 14.8 8 Sudoeste 21 Sudoeste 0 -- -- 81
2017-09-11 05:00:00 15.3 5 Sudoeste 21 Sudoeste 0 -- -- 78
2017-09-11 04:00:00 15.4 4 Sudeste 18 Sur 0 -- -- 79
2017-09-11 03:00:00 15.5 6 Sur 24 Oeste 0 -- -- 80
2017-09-11 02:00:00 14.8 5 Sudoeste 22 Sur 0 -- -- 86
2017-09-11 01:00:00 13.8 4 Sudoeste 10 Sur 0.4 -- -- 99
2017-09-11 00:00:00 13.8 3 Oeste 9 Noroeste 0.4 -- -- 99
2017-09-10 23:00:00 13.6 2 Sudoeste 9 Este 0.2 -- -- 99
2017-09-10 22:00:00 13.6 3 Norte 13 Noroeste 1 -- -- 98
2017-09-10 21:00:00 14.1 6 Sudoeste 30 Sudoeste 0.4 -- -- 94
2017-09-10 20:00:00 14 8 Oeste 24 Sudoeste 0.4 -- -- 91
2017-09-10 19:00:00 12.8 3 Noroeste 8 Noroeste 1.8 -- -- 97
2017-09-10 18:00:00 12.5 3 Noroeste 18 Oeste 2.2 -- -- 94
2017-09-10 17:00:00 13.1 4 Noroeste 42 Oeste 0.2 -- -- 79
2017-09-10 16:00:00 16.9 10 Sudoeste 30 Sudoeste 0 -- -- 40
2017-09-10 15:00:00 16.7 8 Sur 20 Sur 0 -- -- 48
2017-09-10 14:00:00 16.5 5 Sudoeste 18 Sudoeste 0 -- -- 50
2017-09-10 13:00:00 15.9 6 Sudoeste 16 Sudoeste 0 -- -- 57
2017-09-10 12:00:00 13.7 5 Noroeste 12 Noroeste 0 -- -- 63
2017-09-10 11:00:00 11.2 3 Norte 9 Este 0 -- -- 68
2017-09-10 10:00:00 8 2 Nordeste 7 Noroeste 0 -- -- 95
2017-09-10 09:00:00 5.8 0 Calma 5 Oeste 0 -- -- 99
2017-09-10 08:00:00 5.5 2 Sudoeste 8 Oeste 0 -- -- 99
2017-09-10 07:00:00 5.7 3 Oeste 6 Sudoeste 0 -- -- 99
2017-09-10 06:00:00 5.7 3 Oeste 7 Sudoeste 0 -- -- 98
2017-09-10 05:00:00 6.1 2 Oeste 11 Sur 0 -- -- 97
2017-09-10 04:00:00 6.4 2 Sur 16 Sudeste 0 -- -- 96
2017-09-10 03:00:00 7.8 5 Sudeste 23 Norte 0.6 -- -- 89
2017-09-10 02:00:00 7.1 3 Sur 10 Sudoeste 1.4 -- -- 97
2017-09-10 01:00:00 8.8 11 Noroeste 34 Noroeste 0.8 -- -- 82
2017-09-10 00:00:00 7.8 4 Noroeste 23 Norte 0.8 -- -- 91
2017-09-09 23:00:00 6.8 5 Sudoeste 14 Oeste 3.2 -- -- 94
2017-09-09 22:00:00 7.9 6 Oeste 30 Oeste 3.4 -- -- 79
2017-09-09 21:00:00 9.3 12 Noroeste 37 Norte 1.4 -- -- 75
2017-09-09 20:00:00 9.4 13 Noroeste 33 Norte 2 -- -- 74
2017-09-09 19:00:00 9.6 10 Oeste 28 Noroeste 1 -- -- 70
2017-09-09 18:00:00 10.2 18 Noroeste 46 Noroeste 0.6 -- -- 68
2017-09-09 17:00:00 10.1 5 Noroeste 17 Sudoeste 2.4 -- -- 86
2017-09-09 16:00:00 9.7 7 Sur -- -- -- -- -- 88
2017-09-09 15:00:00 -- -- -- -- -- -- -- -- --
2017-09-09 14:00:00 12.7 9 Sur 28 Sur 0.2 -- -- 65
2017-09-09 13:00:00 11.7 9 Sudoeste 27 Oeste 0.6 -- -- 73
2017-09-09 12:00:00 10.8 10 Sudoeste 30 Oeste 0.6 -- -- 82
2017-09-09 11:00:00 10.4 9 Sudoeste 26 Oeste 0.2 -- -- 78
2017-09-09 10:00:00 9.9 8 Sudoeste 31 Sudoeste 0.2 -- -- 69
2017-09-09 09:00:00 9.6 3 Noroeste 14 Sudoeste 0.6 -- -- 96
2017-09-09 08:00:00 9.7 3 Oeste 22 Noroeste 0.2 -- -- 96
2017-09-09 07:00:00 10.5 5 Sudoeste 13 Oeste 0.2 -- -- 88
2017-09-09 06:00:00 11.1 2 Sur 9 Oeste 0.8 -- -- 96
2017-09-09 05:00:00 11.6 5 Sudoeste 16 Sur 0.2 -- -- 90
2017-09-09 04:00:00 12.3 5 Sur 20 Oeste 0.2 -- -- 87
2017-09-09 03:00:00 14.9 6 Sur 44 Norte 0 -- -- 67
2017-09-09 02:00:00 15.6 10 Norte 46 Norte 0 -- -- 61
2017-09-09 01:00:00 11.7 3 Oeste 9 Sudoeste 0 -- -- 97
2017-09-09 00:00:00 11.9 0 Calma 6 Sudoeste 0 -- -- 95
2017-09-08 23:00:00 12.6 0 Calma 6 Sur 0 -- -- 90
2017-09-08 22:00:00 13.6 0 Calma 4 Sudoeste 0 -- -- 85
2017-09-08 21:00:00 14.6 2 Oeste 6 Sudoeste 0 -- -- 78
2017-09-08 20:00:00 16.2 3 Sudoeste 5 Oeste 0 -- -- 72
2017-09-08 19:00:00 18.7 3 Oeste 6 Sudoeste 0 -- -- 62
2017-09-08 18:00:00 22.1 4 Oeste 13 Sudoeste 0 -- -- 49
2017-09-08 17:00:00 23.4 5 Oeste 12 Sudoeste 0 -- -- 40
2017-09-08 16:00:00 23.1 4 Sudoeste 14 Sudoeste 0 -- -- 39
2017-09-08 15:00:00 22.4 4 Sudoeste 13 Sudoeste 0 -- -- 39
2017-09-08 14:00:00 20.9 3 Sudoeste 9 Este 0 -- -- 45
2017-09-08 13:00:00 18.1 5 Sudeste 9 Este 0 -- -- 55
2017-09-08 12:00:00 15.1 4 Este 10 Este 0 -- -- 70
2017-09-08 11:00:00 11.6 3 Este 8 Este 0 -- -- 81
2017-09-08 10:00:00 8.7 2 Este 5 Este 0 -- -- 91
2017-09-08 09:00:00 6.8 0 Calma 5 Sudoeste 0 -- -- 91
2017-09-08 08:00:00 6.5 0 Calma 3 Sudoeste 0 -- -- 82
2017-09-08 07:00:00 6.8 0 Calma 5 Sur 0 -- -- 83
2017-09-08 06:00:00 7.3 0 Calma 6 Sudoeste 0 -- -- 90
2017-09-08 05:00:00 9.1 0 Calma 5 Sur 0 -- -- 94
2017-09-08 04:00:00 10.2 2 Sur 7 Sur 0 -- -- 94
2017-09-08 03:00:00 10.7 2 Sur 8 Sur 0 -- -- 96
2017-09-08 02:00:00 11 3 Sudoeste 8 Sur 0 -- -- 97
2017-09-08 01:00:00 11.3 3 Sur 6 Sur 0 -- -- 97
2017-09-08 00:00:00 11.7 3 Sur 7 Sur 0 -- -- 97
2017-09-07 23:00:00 12 2 Sur 5 Sudoeste 0 -- -- 97
2017-09-07 22:00:00 12.5 0 Calma 6 Sudoeste 0 -- -- 94
2017-09-07 21:00:00 12.9 0 Calma 8 Sudoeste 0 -- -- 89
2017-09-07 20:00:00 15 2 Oeste 8 Oeste 0 -- -- 81
2017-09-07 19:00:00 17.3 4 Oeste 9 Sur 0 -- -- 72
2017-09-07 18:00:00 20.2 4 Sudoeste 14 Oeste 0 -- -- 58
2017-09-07 17:00:00 21.7 4 Sudoeste 13 Sur 0 -- -- 53
2017-09-07 16:00:00 21.2 5 Sudoeste 12 Sudoeste 0 -- -- 53
2017-09-07 15:00:00 20.1 3 Sudeste 12 Sudoeste 0 -- -- 55
2017-09-07 14:00:00 18.8 5 Sur 13 Sudoeste 0 -- -- 60
2017-09-07 13:00:00 17.3 5 Sur 10 Sudoeste 0 -- -- 59
2017-09-07 12:00:00 14.4 3 Este 10 Este 0 -- -- 64
2017-09-07 11:00:00 12.1 4 Este 6 Este 0 -- -- 72
2017-09-07 10:00:00 8.3 0 Calma 2 Este 0 -- -- 80
2017-09-07 09:00:00 6.6 0 Calma 3 Sudoeste 0 -- -- 80
2017-09-07 08:00:00 5.9 0 Calma 2 Oeste 0 -- -- 79
2017-09-07 07:00:00 5.7 0 Calma 4 Sudoeste 0 -- -- 79
2017-09-07 06:00:00 6.1 0 Calma 4 Sudoeste 0 -- -- 87
2017-09-07 05:00:00 7 0 Calma 6 Sudoeste 0 -- -- 93
2017-09-07 04:00:00 8.5 0 Calma 4 Sudoeste 0 -- -- 93
2017-09-07 03:00:00 8.8 0 Calma 3 Oeste 0 -- -- 96
2017-09-07 02:00:00 8.6 0 Calma 4 Oeste 0 -- -- 93
2017-09-07 01:00:00 10.2 0 Calma 4 Sudoeste 0 -- -- 92
2017-09-07 00:00:00 10.9 0 Calma 6 Sudoeste 0 -- -- 90
2017-09-06 23:00:00 11.6 0 Calma 4 Sudoeste 0 -- -- 95
2017-09-06 22:00:00 12.2 3 Sudoeste 9 Sudoeste 0 -- -- 92
2017-09-06 21:00:00 13 3 Sudoeste 8 Sudoeste 0 -- -- 90
2017-09-06 20:00:00 14.2 0 Calma 10 Oeste 0 -- -- 85
2017-09-06 19:00:00 15.7 4 Oeste 12 Sudoeste 0 -- -- 79
2017-09-06 18:00:00 17.4 5 Sudoeste 13 Sudoeste 0 -- -- 72
2017-09-06 17:00:00 18.5 6 Sudoeste 17 Sudeste 0 -- -- 69
2017-09-06 16:00:00 20.6 4 Sur 16 Sudoeste 0 -- -- 61
2017-09-06 15:00:00 19.5 5 Sur 16 Sudoeste 0 -- -- 63
2017-09-06 14:00:00 18 4 Noroeste 10 Sudoeste 0 -- -- 65
2017-09-06 13:00:00 16.8 4 Noroeste 10 Este 0 -- -- 72
2017-09-06 12:00:00 16 3 Sur 8 Sudoeste 0 -- -- 72
2017-09-06 11:00:00 15 0 Calma 7 Sudeste 0 -- -- 80
2017-09-06 10:00:00 14 3 Este 8 Oeste 0 -- -- 88
2017-09-06 09:00:00 12.8 2 Sudoeste 5 Sudoeste 0 -- -- 97
2017-09-06 08:00:00 12.5 0 Calma 4 Sudoeste 0 -- -- 98
2017-09-06 07:00:00 12.4 0 Calma 3 Sudoeste 0 -- -- 97
2017-09-06 06:00:00 12.4 2 Este 5 Este 0 -- -- 99
2017-09-06 05:00:00 11.9 0 Calma 3 Este 0 -- -- 99
2017-09-06 04:00:00 12 0 Calma 3 Oeste 0 -- -- 97
2017-09-06 03:00:00 12.9 0 Calma 3 Sudoeste 0 -- -- 97
2017-09-06 02:00:00 13.6 0 Calma 6 Sur 0 -- -- 97
2017-09-06 01:00:00 14 0 Calma 5 Sudoeste 0 -- -- 95
2017-09-06 00:00:00 14.5 2 Sur 6 Sur 0 -- -- 95
2017-09-05 23:00:00 15.1 2 Sur 5 Sudoeste 0 -- -- 93
2017-09-05 22:00:00 15.4 2 Sudoeste 7 Sudoeste 0 -- -- 92
2017-09-05 21:00:00 16.5 0 Calma 8 Sudoeste 0 -- -- 85
2017-09-05 20:00:00 17.8 4 Oeste 9 Sudoeste 0 -- -- 83
2017-09-05 19:00:00 19.8 4 Sudoeste 13 Noroeste 0 -- -- 76
2017-09-05 18:00:00 22.2 4 Sur 15 Sudoeste 0 -- -- 65
2017-09-05 17:00:00 21.5 6 Oeste 16 Sudoeste 0 -- -- 72
2017-09-05 16:00:00 23.2 5 Sudeste 17 Sur 0 -- -- 64
2017-09-05 15:00:00 23.4 5 Sur 14 Sudoeste 0 -- -- 65
2017-09-05 14:00:00 22.9 5 Sudoeste 14 Sudoeste 0 -- -- 62
2017-09-05 13:00:00 21.2 5 Sur 14 Sudoeste 0 -- -- 66
2017-09-05 12:00:00 18.6 5 Este 11 Este 0 -- -- 76
2017-09-05 11:00:00 14.9 4 Este 9 Nordeste 0 -- -- 94
2017-09-05 10:00:00 12.9 0 Calma 5 Este 0 -- -- 100
2017-09-05 09:00:00 11.9 0 Calma 6 Noroeste 0 -- -- 99
2017-09-05 08:00:00 11.7 3 Noroeste 8 Oeste 0 -- -- 99
2017-09-05 07:00:00 12.3 2 Noroeste 5 Noroeste 0 -- -- 98
2017-09-05 06:00:00 13.1 3 Noroeste 6 Noroeste 0 -- -- 98
2017-09-05 05:00:00 13.4 0 Calma 6 Norte 0 -- -- 98
2017-09-05 04:00:00 13.6 3 Noroeste 6 Noroeste 0 -- -- 97
2017-09-05 03:00:00 13.8 2 Norte 6 Noroeste 0 -- -- 98
2017-09-05 02:00:00 13.9 0 Calma 5 Oeste 0 -- -- 97
2017-09-05 01:00:00 14.4 0 Calma 0 Calma 0 -- -- 97
2017-09-05 00:00:00 14.7 0 Calma -- -- 0 -- -- 96
2017-09-04 23:00:00 15.2 0 Calma 3 Sudoeste 0 -- -- 94
2017-09-04 22:00:00 15.8 0 Calma 4 Sudoeste 0 -- -- 91
2017-09-04 21:00:00 16.3 2 Sur 8 Oeste 0 -- -- 88
2017-09-04 20:00:00 17.4 4 Oeste 12 Oeste 0 -- -- 84
2017-09-04 19:00:00 19.4 5 Sudoeste 12 Sudoeste 0 -- -- 76
2017-09-04 18:00:00 21.6 4 Oeste 17 Sur 0 -- -- 69
2017-09-04 17:00:00 22.6 5 Sudoeste 15 Sudoeste 0 -- -- 63
2017-09-04 16:00:00 23.3 5 Oeste 19 Sudoeste 0 -- -- 51
2017-09-04 15:00:00 22.2 8 Sur 24 Sur 0 -- -- 52
2017-09-04 14:00:00 21.3 7 Sudoeste 24 Oeste 0 -- -- 52
2017-09-04 13:00:00 20 10 Oeste 22 Oeste 0 -- -- 57
2017-09-04 12:00:00 18.6 9 Oeste 27 Oeste 0 -- -- 65
2017-09-04 11:00:00 15.7 6 Sur 19 Sur 0 -- -- 81
2017-09-04 10:00:00 14 0 Calma 5 Noroeste 0 -- -- 99
2017-09-04 09:00:00 13.1 0 Calma 5 Sudoeste 0 -- -- 100
2017-09-04 08:00:00 12.8 0 Calma 7 Oeste 0 -- -- 100
2017-09-04 07:00:00 12.9 0 Calma 5 Noroeste 0 -- -- 100
2017-09-04 06:00:00 12.9 0 Calma 5 Oeste 0 -- -- 99
2017-09-04 05:00:00 13 0 Calma 6 Oeste 0.2 -- -- 100
2017-09-04 04:00:00 13.1 0 Calma 7 Noroeste 0 -- -- 99
2017-09-04 03:00:00 13.3 0 Calma 5 Noroeste 0.2 -- -- 100
2017-09-04 02:00:00 13.3 0 Calma 7 Sudoeste 0 -- -- 99
2017-09-04 01:00:00 13.3 2 Sudoeste 8 Oeste 0 -- -- 99
2017-09-04 00:00:00 13.9 3 Nordeste 8 Oeste 1 -- -- 99
2017-09-03 23:00:00 14.2 0 Calma 4 Noroeste 0 -- -- 99
2017-09-03 22:00:00 14.5 0 Calma 5 Sudoeste 0 -- -- 97
2017-09-03 21:00:00 15.2 0 Calma 5 Sudoeste 0.2 -- -- 96
2017-09-03 20:00:00 15.8 3 Sudoeste 5 Oeste 1 -- -- 94
2017-09-03 19:00:00 16.9 3 Sudoeste 7 Sudoeste 0.6 -- -- 90
2017-09-03 18:00:00 19.7 2 Sudeste 7 Sudoeste 0.2 -- -- 66
2017-09-03 17:00:00 19.9 2 Oeste 6 Sudoeste 0 -- -- 66
2017-09-03 16:00:00 20.6 3 Oeste 13 Noroeste 0 -- -- 61
2017-09-03 15:00:00 21.9 6 Oeste 25 Sudoeste 0 -- -- 55
2017-09-03 14:00:00 22.2 5 Nordeste 20 Este 0 -- -- 50
2017-09-03 13:00:00 19.4 3 Este 6 Este 0 -- -- 64
2017-09-03 12:00:00 17.7 2 Sur 8 Sudoeste 0 -- -- 63
2017-09-03 11:00:00 17 5 Sur 9 Sur 0 -- -- 59
2017-09-03 10:00:00 16.4 0 Calma 6 Noroeste 0 -- -- 68
2017-09-03 09:00:00 15.6 3 Oeste 30 Sudoeste 0 -- -- 67
2017-09-03 08:00:00 16.4 6 Oeste 24 Noroeste 0 -- -- 49
2017-09-03 07:00:00 15.1 5 Sur 17 Sudoeste 0 -- -- 49
2017-09-03 06:00:00 13.7 2 Noroeste 10 Noroeste 0 -- -- 71
2017-09-03 05:00:00 13.8 4 Sudoeste 14 Noroeste 0 -- -- 72
2017-09-03 04:00:00 14 5 Oeste 14 Oeste 0 -- -- 77
2017-09-03 03:00:00 12.8 3 Sudoeste 7 Este 0 -- -- 87
2017-09-03 02:00:00 12.4 0 Calma 3 Oeste 0 -- -- 87
2017-09-03 01:00:00 12.8 0 Calma 3 Noroeste 0 -- -- 90
2017-09-03 00:00:00 13 2 Oeste 4 Oeste 0 -- -- 90
2017-09-02 23:00:00 13.2 0 Calma 3 Oeste 0 -- -- 89
2017-09-02 22:00:00 13.8 2 Sudoeste 5 Oeste 0 -- -- 86
2017-09-02 21:00:00 14.5 2 Sudoeste 4 Sudoeste 0 -- -- 82
2017-09-02 20:00:00 16.2 2 Sudoeste 5 Oeste 0 -- -- 77
2017-09-02 19:00:00 18.7 3 Oeste 9 Sudoeste 0 -- -- 69
2017-09-02 18:00:00 21.4 2 Sudoeste 10 Sudoeste 0 -- -- 51
2017-09-02 17:00:00 22.3 4 Sudoeste 12 Sudoeste 0 -- -- 40
2017-09-02 16:00:00 21.4 3 Sur 10 Este 0 -- -- 40
2017-09-02 15:00:00 20.2 4 Sur 15 Sudoeste 0 -- -- 44
2017-09-02 14:00:00 19.1 4 Sudeste 13 Sudeste 0 -- -- 49
2017-09-02 13:00:00 17.5 3 Este 12 Este 0 -- -- 53
2017-09-02 12:00:00 14.2 3 Sudeste 10 Este 0 -- -- 64
2017-09-02 11:00:00 11.2 3 Este 6 Este 0 -- -- 75
2017-09-02 10:00:00 7 0 Calma 3 Nordeste 0 -- -- 98
2017-09-02 09:00:00 5.2 0 Calma 2 Oeste 0 -- -- 100
2017-09-02 08:00:00 4.9 0 Calma 3 Noroeste 0 -- -- 98
2017-09-02 07:00:00 5.2 0 Calma 4 Oeste 0 -- -- 98
2017-09-02 06:00:00 5.6 0 Calma 3 Sudoeste 0 -- -- 98
2017-09-02 05:00:00 6 0 Calma 4 Sudoeste 0 -- -- 97
2017-09-02 04:00:00 6.7 0 Calma 4 Oeste 0 -- -- 96
2017-09-02 03:00:00 7.1 0 Calma 4 Sudoeste 0 -- -- 95
2017-09-02 02:00:00 7.8 0 Calma 4 Sudoeste 0 -- -- 93
2017-09-02 01:00:00 7.7 0 Calma 6 Noroeste 0 -- -- 94
2017-09-02 00:00:00 7.8 2 Sudoeste 4 Oeste 0 -- -- 93
2017-09-01 23:00:00 8.5 0 Calma 5 Oeste 0 -- -- 91
2017-09-01 22:00:00 9 3 Noroeste 6 Oeste 0 -- -- 87
2017-09-01 21:00:00 10.7 0 Calma 10 Sudoeste 0 -- -- 80
2017-09-01 20:00:00 12 3 Sur 19 Noroeste 0 -- -- 75
2017-09-01 19:00:00 13.3 0 Calma 31 Norte 0 -- -- 73
2017-09-01 18:00:00 14.1 7 Sur 27 Sudoeste 0 -- -- 70
2017-09-01 17:00:00 16.3 4 Sudeste 15 Sudoeste 0 -- -- 56
2017-09-01 16:00:00 15.6 2 Noroeste 9 Oeste 0 -- -- 58
2017-09-01 15:00:00 15.2 4 Sudoeste 9 Sudoeste 0 -- -- 60
2017-09-01 14:00:00 15.4 2 Nordeste 9 Noroeste 0 -- -- 61
2017-09-01 13:00:00 14.2 4 Este 8 Este 0 -- -- 63
2017-09-01 12:00:00 11.1 2 Este 6 Este 0 -- -- 92
2017-09-01 11:00:00 9.9 0 Calma 3 Este 0 -- -- 95
2017-09-01 10:00:00 9.2 0 Calma 6 Sur 0 -- -- 99
2017-09-01 09:00:00 8.8 0 Calma 3 Este 0 -- -- 100
2017-09-01 08:00:00 8.7 0 Calma 5 Sur 0 -- -- 100
2017-09-01 07:00:00 8.9 2 Sur 8 Sudeste 0 -- -- 100
2017-09-01 06:00:00 9.2 0 Calma 3 Este 0 -- -- 100
2017-09-01 05:00:00 9.1 0 Calma 4 Sudeste 0.4 -- -- 100
2017-09-01 04:00:00 9.2 0 Calma 4 Este 0.4 -- -- 100
2017-09-01 03:00:00 9.5 0 Calma 5 Sur 0.6 -- -- 100
2017-09-01 02:00:00 9.6 0 Calma 6 Sudoeste 0 -- -- 100
2017-09-01 01:00:00 9.7 0 Calma 6 Sudoeste 0.4 -- -- 99
2017-09-01 00:00:00 9.8 2 Sudoeste 5 Sudoeste 0 -- -- 99
2017-08-31 23:00:00 9.8 0 Calma 3 Norte 0.2 -- -- 99
2017-08-31 22:00:00 9.7 3 Oeste 12 Sudoeste 0.4 -- -- 98
2017-08-31 21:00:00 10.2 3 Sudoeste 11 Sudoeste 0.4 -- -- 97
2017-08-31 20:00:00 11.3 4 Oeste 10 Oeste 0 -- -- 92
2017-08-31 19:00:00 12.5 4 Sudoeste 11 Sudoeste 0 -- -- 85
2017-08-31 18:00:00 13.6 5 Oeste 15 Este 0 -- -- 81
2017-08-31 17:00:00 15 4 Sudoeste 14 Oeste 0 -- -- 74
2017-08-31 16:00:00 16.1 3 Noroeste 16 Sudoeste 0 -- -- 69
2017-08-31 15:00:00 17.7 6 Sudoeste 16 Sudoeste 0 -- -- 60
2017-08-31 14:00:00 16.2 6 Sudeste 15 Este 0 -- -- 61
2017-08-31 13:00:00 14.9 6 Este 14 Nordeste 0 -- -- 69
2017-08-31 12:00:00 12.6 0 Calma 5 Noroeste 0 -- -- 83
2017-08-31 11:00:00 11 0 Calma 6 Este 0 -- -- 93
2017-08-31 10:00:00 10.5 2 Sudoeste 9 Sudoeste 0 -- -- 94
2017-08-31 09:00:00 9.5 2 Sudoeste 6 Sudoeste 0 -- -- 99
2017-08-31 08:00:00 9.3 2 Sudoeste 4 Sudoeste 0 -- -- 100
2017-08-31 07:00:00 9.3 0 Calma 5 Sur 0 -- -- 100
2017-08-31 06:00:00 9.2 0 Calma 5 Sur 0.4 -- -- 100
2017-08-31 05:00:00 9.2 0 Calma 7 Sudoeste 0 -- -- 100
2017-08-31 04:00:00 9.3 2 Sudoeste 6 Sur 0.2 -- -- 100
2017-08-31 03:00:00 9.6 2 Sudoeste 6 Sudoeste 0.2 -- -- 100
2017-08-31 02:00:00 9.6 2 Sudoeste 6 Sudoeste 0.4 -- -- 100
2017-08-31 01:00:00 9.8 3 Oeste 7 Noroeste 0.2 -- -- 99
2017-08-31 00:00:00 10 3 Oeste 13 Sudoeste 0.2 -- -- 99
2017-08-30 23:00:00 10.8 5 Sudoeste 10 Sur 0.4 -- -- 99
2017-08-30 22:00:00 11.2 2 Sur 8 Sudoeste 0.6 -- -- 98
2017-08-30 21:00:00 11.9 2 Sur 6 Sur 2.4 -- -- 98
2017-08-30 20:00:00 12.7 3 Sudeste 10 Sur 1.4 -- -- 97
2017-08-30 19:00:00 13.3 4 Sudoeste 12 Oeste 2.4 -- -- 97
2017-08-30 18:00:00 14.7 3 Sudoeste 9 Sudoeste 0 -- -- 93
2017-08-30 17:00:00 14.1 5 Sudeste 23 Sudoeste 3.8 -- -- 96
2017-08-30 16:00:00 14 4 Oeste 33 Sudoeste 6 -- -- 91
2017-08-30 15:00:00 19.1 8 Sur 32 Sudeste 0 -- -- 63
2017-08-30 14:00:00 21.5 6 Sudeste 21 Sudeste 0 -- -- 50
2017-08-30 13:00:00 21.1 7 Nordeste 18 Nordeste 0 -- -- 53
2017-08-30 12:00:00 19.3 7 Sur 22 Sur 0 -- -- 66
2017-08-30 11:00:00 14.8 3 Sur 14 Sur 0 -- -- 91
2017-08-30 10:00:00 13.5 0 Calma 5 Sudoeste 0 -- -- 99
2017-08-30 09:00:00 13.1 0 Calma 5 Noroeste 0 -- -- 99
2017-08-30 08:00:00 12.8 0 Calma 5 Oeste 0 -- -- 100
2017-08-30 07:00:00 12.6 0 Calma 6 Sudoeste 0 -- -- 99
2017-08-30 06:00:00 12.7 2 Oeste 5 Sudoeste 0 -- -- 99
2017-08-30 05:00:00 13.3 0 Calma 3 Oeste 0 -- -- 99
2017-08-30 04:00:00 13.3 0 Calma 3 Sudeste 0 -- -- 99
2017-08-30 03:00:00 13 0 Calma 9 Oeste 0 -- -- 97
2017-08-30 02:00:00 14 3 Sudoeste 11 Norte 3.2 -- -- 96
2017-08-30 01:00:00 15.4 0 Calma 6 Noroeste 2 -- -- 97
2017-08-30 00:00:00 15.6 0 Calma 6 Sur 0 -- -- 95
2017-08-29 23:00:00 15.7 4 Sudoeste 11 Sudoeste 0 -- -- 94
2017-08-29 22:00:00 16.5 0 Calma 11 Sudoeste 0 -- -- 89
2017-08-29 21:00:00 17.4 3 Oeste 8 Sur 0 -- -- 84
2017-08-29 20:00:00 18.6 3 Oeste 10 Noroeste 0 -- -- 77
2017-08-29 19:00:00 21.2 3 Sudoeste 7 Sudoeste 0 -- -- 61
2017-08-29 18:00:00 21.6 3 Oeste 14 Sur 0 -- -- 55
2017-08-29 17:00:00 22.7 5 Sudoeste 18 Sudoeste 0 -- -- 51
2017-08-29 16:00:00 23 5 Sudoeste 18 Sudoeste 0 -- -- 49
2017-08-29 15:00:00 21.7 3 Sudoeste 14 Sudoeste 0 -- -- 55
2017-08-29 14:00:00 21.8 5 Oeste 15 Sudoeste 0 -- -- 53
2017-08-29 13:00:00 21.6 5 Sur 13 Sudoeste 0 -- -- 53
2017-08-29 12:00:00 19.8 5 Sudeste 12 Este 0 -- -- 59
2017-08-29 11:00:00 17 2 Este 8 Este 0 -- -- 68
2017-08-29 10:00:00 13 0 Calma 4 Este 0 -- -- 95
2017-08-29 09:00:00 11.5 2 Noroeste 4 Oeste 0 -- -- 97
2017-08-29 08:00:00 11.3 0 Calma 6 Sudoeste 0 -- -- 96
2017-08-29 07:00:00 11.5 2 Noroeste 5 Oeste 0 -- -- 97
2017-08-29 06:00:00 12 2 Norte 7 Sudoeste 0 -- -- 97
2017-08-29 05:00:00 12.4 0 Calma 5 Oeste 0 -- -- 97
2017-08-29 04:00:00 12.8 2 Sudoeste 6 Sudoeste 0 -- -- 97
2017-08-29 03:00:00 13.3 0 Calma 8 Norte 0 -- -- 96
2017-08-29 02:00:00 13.4 5 Oeste 11 Oeste 0 -- -- 96
2017-08-29 01:00:00 14 0 Calma 14 Noroeste 0.4 -- -- 97
2017-08-29 00:00:00 14.4 0 Calma 4 Sudoeste 0.6 -- -- 94
2017-08-28 23:00:00 15 2 Sudoeste 7 Noroeste 0 -- -- 87
2017-08-28 22:00:00 15.3 0 Calma 6 Oeste 0 -- -- 87
2017-08-28 21:00:00 16 0 Calma 5 Norte 0 -- -- 83
2017-08-28 20:00:00 16.8 2 Sudoeste 14 Sudeste 0 -- -- 78
2017-08-28 19:00:00 19.3 4 Sur 14 Sudeste 0 -- -- 64
2017-08-28 18:00:00 20.9 3 Sudoeste 6 Sudoeste 0 -- -- 66
2017-08-28 17:00:00 22.3 2 Sudoeste 9 Sudoeste 0 -- -- 61
2017-08-28 16:00:00 22.5 3 Sudoeste 17 Sudoeste 0 -- -- 58
2017-08-28 15:00:00 23 4 Sur 10 Sur 0 -- -- 55
2017-08-28 14:00:00 22.8 4 Sudoeste 8 Sudoeste 0 -- -- 53
2017-08-28 13:00:00 22.1 3 Este 6 Noroeste 0 -- -- 56
2017-08-28 12:00:00 20.3 2 Sur 8 Este 0 -- -- 59
2017-08-28 11:00:00 17.8 0 Calma 5 Noroeste 0 -- -- 75
2017-08-28 10:00:00 16.5 4 Sudoeste 9 Sur 0 -- -- 75
2017-08-28 09:00:00 14.6 0 Calma 5 Sudoeste 0 -- -- 84
2017-08-28 08:00:00 14 0 Calma 5 Noroeste 0 -- -- 84
2017-08-28 07:00:00 14.4 3 Norte 8 Noroeste 0 -- -- 81
2017-08-28 06:00:00 14.4 3 Sur 8 Sudoeste 0 -- -- 78
2017-08-28 05:00:00 14 3 Oeste 7 Sudoeste 0 -- -- 85
2017-08-28 04:00:00 15.4 3 Oeste 12 Sudoeste 0 -- -- 78
2017-08-28 03:00:00 19.2 5 Oeste 23 Noroeste 0 -- -- 55
2017-08-28 02:00:00 16.1 6 Noroeste 13 Noroeste 0 -- -- 71
2017-08-28 01:00:00 14.8 0 Calma 6 Oeste 0 -- -- 80
2017-08-28 00:00:00 14.6 0 Calma 8 Oeste 0 -- -- 86
2017-08-27 23:00:00 15.2 2 Oeste 8 Oeste 0 -- -- 85
2017-08-27 22:00:00 16.4 3 Sudoeste 8 Oeste 0 -- -- 84
2017-08-27 21:00:00 17.2 3 Oeste 6 Sudoeste 0 -- -- 81
2017-08-27 20:00:00 19.3 2 Sudoeste 4 Noroeste 0 -- -- 82
2017-08-27 19:00:00 20.6 2 Sudoeste 6 Sudoeste 0 -- -- 74
2017-08-27 18:00:00 21.4 4 Sudoeste 9 Sudoeste 0 -- -- 59
2017-08-27 17:00:00 21.7 4 Sur 8 Sudeste 0 -- -- 56
2017-08-27 16:00:00 18.3 0 Calma 6 Este 0 -- -- 77
2017-08-27 15:00:00 15.9 4 Oeste 8 Noroeste 0 -- -- 91
2017-08-27 14:00:00 14.6 2 Sur 8 Noroeste 0 -- -- 95
2017-08-27 13:00:00 15 2 Sur 6 Noroeste 0.8 -- -- 93
2017-08-27 12:00:00 13.5 3 Oeste 11 Sudeste 1 -- -- 96
2017-08-27 11:00:00 13.9 2 Noroeste 10 Noroeste 0.4 -- -- 91
2017-08-27 10:00:00 16.2 4 Oeste 36 Norte 0.2 -- -- 75
2017-08-27 09:00:00 18.9 9 Norte 35 Norte 0 -- -- 56
2017-08-27 08:00:00 19.2 4 Noroeste 21 Noroeste 0 -- -- 54
2017-08-27 07:00:00 14.6 3 Oeste 10 Oeste 0 -- -- 75
2017-08-27 06:00:00 14.2 3 Noroeste 7 Oeste 0.2 -- -- 78
2017-08-27 05:00:00 14.7 2 Sur 6 Noroeste 0 -- -- 79
2017-08-27 04:00:00 14.2 0 Calma 7 Noroeste 0 -- -- 83
2017-08-27 03:00:00 13.6 0 Calma 7 Oeste 0 -- -- 87
2017-08-27 02:00:00 12.9 2 Oeste 6 Noroeste 0 -- -- 93
2017-08-27 01:00:00 12.9 3 Sudoeste 8 Oeste 0 -- -- 93
2017-08-27 00:00:00 13.6 0 Calma 17 Este 0.6 -- -- 93
2017-08-26 23:00:00 15.3 0 Calma 8 Noroeste 0 -- -- 80
2017-08-26 22:00:00 14.8 4 Sudoeste 42 Sudoeste 0.2 -- -- 87
2017-08-26 21:00:00 14.2 2 Sudoeste 11 Oeste 0 -- -- 91
2017-08-26 20:00:00 17.8 4 Oeste 39 Sudeste 0.6 -- -- 75
2017-08-26 19:00:00 22.7 0 Calma 18 Norte 0 -- -- 42
2017-08-26 18:00:00 24.5 5 Noroeste 26 Noroeste 0 -- -- 34
2017-08-26 17:00:00 24.8 6 Noroeste 23 Noroeste 0 -- -- 37
2017-08-26 16:00:00 23.7 8 Sudeste 27 Este 0 -- -- 37
2017-08-26 15:00:00 23.8 8 Este 20 Noroeste 0 -- -- 36
2017-08-26 14:00:00 24.1 7 Nordeste 33 Noroeste 0 -- -- 33
2017-08-26 13:00:00 26.3 5 Oeste 27 Este 0 -- -- 28
2017-08-26 12:00:00 24.8 5 Este 18 Norte 0 -- -- 30
2017-08-26 11:00:00 23.2 6 Norte 22 Nordeste 0 -- -- 36
2017-08-26 10:00:00 17.5 2 Oeste 7 Noroeste 0 -- -- 61
2017-08-26 09:00:00 14.5 3 Noroeste 6 Norte 0 -- -- 64
2017-08-26 08:00:00 13.8 2 Noroeste 7 Noroeste 0 -- -- 65
2017-08-26 07:00:00 12.5 0 Calma 7 Oeste 0 -- -- 75
2017-08-26 06:00:00 12.4 0 Calma 7 Noroeste 0 -- -- 75
2017-08-26 05:00:00 12.5 3 Noroeste 7 Sudoeste 0 -- -- 84
2017-08-26 04:00:00 12.6 0 Calma 5 Sudoeste 0 -- -- 88
2017-08-26 03:00:00 12.7 0 Calma 4 Oeste 0 -- -- 88
2017-08-26 02:00:00 12.9 0 Calma 4 Oeste 0 -- -- 93
2017-08-26 01:00:00 13.3 0 Calma 3 Oeste 0 -- -- 93
2017-08-26 00:00:00 13.8 0 Calma 3 Noroeste 0 -- -- 91
2017-08-25 23:00:00 14.8 0 Calma 4 Sudoeste 0 -- -- 90
2017-08-25 22:00:00 15.7 2 Sudoeste 4 Oeste 0 -- -- 87
2017-08-25 21:00:00 18.1 0 Calma 6 Oeste 0 -- -- 77
2017-08-25 20:00:00 20.5 2 Sudoeste 10 Noroeste 0 -- -- 66
2017-08-25 19:00:00 22.8 5 Oeste 10 Sudoeste 0 -- -- 51
2017-08-25 18:00:00 24.1 5 Sudoeste 14 Sudoeste 0 -- -- 52
2017-08-25 17:00:00 25.3 4 Sur 14 Sudoeste 0 -- -- 48
2017-08-25 16:00:00 25.2 5 Sudoeste 14 Sur 0 -- -- 48
2017-08-25 15:00:00 24.7 5 Sur 15 Sudoeste 0 -- -- 50
2017-08-25 14:00:00 24.8 6 Sudeste 21 Nordeste 0 -- -- 48
2017-08-25 13:00:00 24.5 6 Este 18 Este 0 -- -- 30
2017-08-25 12:00:00 22.9 4 Sur 14 Este 0 -- -- 39
2017-08-25 11:00:00 21.1 4 Sudeste 18 Oeste 0 -- -- 54
2017-08-25 10:00:00 14.5 3 Noroeste 9 Noroeste 0 -- -- 88
2017-08-25 09:00:00 12 3 Sudoeste 10 Este 0 -- -- 97
2017-08-25 08:00:00 11.3 4 Sudoeste 9 Este 0 -- -- 98
2017-08-25 07:00:00 11.4 3 Sudoeste 7 Sudoeste 0 -- -- 98
2017-08-25 06:00:00 11.9 2 Sudoeste 8 Noroeste 0 -- -- 98
2017-08-25 05:00:00 12.7 0 Calma 4 Sudoeste 0 -- -- 96
2017-08-25 04:00:00 13.9 3 Sudoeste 6 Sudoeste 0 -- -- 97
2017-08-25 03:00:00 14.4 0 Calma 5 Sur 0 -- -- 97
2017-08-25 02:00:00 14.6 0 Calma 6 Sudoeste 0 -- -- 98
2017-08-25 01:00:00 14.9 0 Calma 5 Sudeste 0 -- -- 96
2017-08-25 00:00:00 15.1 0 Calma 5 Sudoeste 0 -- -- 96
2017-08-24 23:00:00 15.4 2 Sudoeste 8 Sur 0 -- -- 95
2017-08-24 22:00:00 15.7 5 Sudoeste 9 Sudoeste 0 -- -- 94
2017-08-24 21:00:00 16.3 5 Sudoeste 12 Sudoeste 0 -- -- 91
2017-08-24 20:00:00 17.1 3 Sudoeste 9 Sudoeste 0 -- -- 86
2017-08-24 19:00:00 17.7 3 Oeste 10 Sudoeste 0 -- -- 84
2017-08-24 18:00:00 18.2 3 Sur 12 Oeste 0 -- -- 82
2017-08-24 17:00:00 18.9 4 Sudoeste 14 Sudoeste 0 -- -- 80
2017-08-24 16:00:00 20.4 4 Sur 13 Sudoeste 0 -- -- 75
2017-08-24 15:00:00 20 5 Sudoeste 17 Este 0 -- -- 76
2017-08-24 14:00:00 20.7 7 Sudoeste 20 Sudoeste 0 -- -- 74
2017-08-24 13:00:00 20.5 7 Sur 14 Sudoeste 0 -- -- 74
2017-08-24 12:00:00 19.6 5 Sur 13 Este 0 -- -- 76
2017-08-24 11:00:00 17.2 4 Este 8 Este 0 -- -- 84
2017-08-24 10:00:00 14.1 0 Calma 4 Este 0 -- -- 98
2017-08-24 09:00:00 13.1 0 Calma 4 Noroeste 0 -- -- 100
2017-08-24 08:00:00 13.1 0 Calma 4 Sudoeste 0 -- -- 100
2017-08-24 07:00:00 13.3 2 Sur 5 Sudoeste 0 -- -- 99
2017-08-24 06:00:00 13.7 0 Calma 4 Sur 0 -- -- 99
2017-08-24 05:00:00 14 0 Calma 4 Sudeste 0 -- -- 99
2017-08-24 04:00:00 14.3 0 Calma 5 Sudoeste 0 -- -- 98
2017-08-24 03:00:00 14.7 0 Calma 6 Noroeste 0 -- -- 98
2017-08-24 02:00:00 14.8 0 Calma 6 Sur 0 -- -- 98
2017-08-24 01:00:00 15.3 0 Calma 5 Este 0 -- -- 97
2017-08-24 00:00:00 15.3 2 Sur 4 Sudoeste 0 -- -- 98
2017-08-23 23:00:00 15.4 3 Sudoeste 6 Sur 0 -- -- 97
2017-08-23 22:00:00 15.8 3 Sur 8 Sudoeste 0 -- -- 95
2017-08-23 21:00:00 17.3 4 Sur 13 Sur 0 -- -- 86
2017-08-23 20:00:00 20.2 3 Sudoeste 12 Oeste 0 -- -- 75
2017-08-23 19:00:00 22.9 3 Sur 11 Sur 0 -- -- 63
2017-08-23 18:00:00 25.6 4 Sudoeste 11 Sudoeste 0 -- -- 53
2017-08-23 17:00:00 26.8 3 Oeste 13 Sudoeste 0 -- -- 45
2017-08-23 16:00:00 27.6 4 Sudeste 12 Sudeste 0 -- -- 41
2017-08-23 15:00:00 26.1 4 Sudoeste 11 Sudoeste 0 -- -- 44
2017-08-23 14:00:00 24.3 4 Sudeste 10 Sudoeste 0 -- -- 50
2017-08-23 13:00:00 25 4 Sur 14 Sur 0 -- -- 42
2017-08-23 12:00:00 23.2 2 Sur 8 Sur 0 -- -- 50
2017-08-23 11:00:00 20.9 2 Este 5 Este 0 -- -- 63
2017-08-23 10:00:00 17.5 0 Calma 3 Este 0 -- -- 77
2017-08-23 09:00:00 15.9 0 Calma 4 Sudoeste 0 -- -- 82
2017-08-23 08:00:00 15.2 0 Calma 3 Sudoeste 0 -- -- 80
2017-08-23 07:00:00 14.3 0 Calma 4 Noroeste 0 -- -- 81
2017-08-23 06:00:00 14.2 0 Calma 3 Sudoeste 0 -- -- 81
2017-08-23 05:00:00 14.3 0 Calma 4 Oeste 0 -- -- 85
2017-08-23 04:00:00 14.3 0 Calma 3 Oeste 0 -- -- 91
2017-08-23 03:00:00 14.6 0 Calma 3 Sudoeste 0 -- -- 90
2017-08-23 02:00:00 14.9 0 Calma 3 Sudoeste 0 -- -- 89
2017-08-23 01:00:00 15.5 0 Calma 4 Oeste 0 -- -- 87
2017-08-23 00:00:00 16.1 0 Calma 4 Oeste 0 -- -- 84
2017-08-22 23:00:00 17.2 2 Sudoeste 4 Oeste 0 -- -- 79
2017-08-22 22:00:00 18.6 0 Calma 4 Sudoeste 0 -- -- 73
2017-08-22 21:00:00 20.6 2 Sur 5 Sudoeste 0 -- -- 67
2017-08-22 20:00:00 22.9 2 Sudoeste 8 Sudoeste 0 -- -- 58
2017-08-22 19:00:00 26.5 4 Oeste 11 Sudoeste 0 -- -- 45
2017-08-22 18:00:00 28.4 4 Sudoeste 13 Sudoeste 0 -- -- 40
2017-08-22 17:00:00 28.9 6 Sudoeste 19 Sur 0 -- -- 38
2017-08-22 16:00:00 29.7 7 Sudoeste 19 Este 0 -- -- 36
2017-08-22 15:00:00 29.9 5 Sudeste 18 Sudoeste 0 -- -- 32
2017-08-22 14:00:00 29.7 5 Sur 16 Sudoeste 0 -- -- 32
2017-08-22 13:00:00 28.6 4 Sur 10 Este 0 -- -- 31
2017-08-22 12:00:00 26.9 4 Sudeste 10 Este 0 -- -- 35
2017-08-22 11:00:00 24.3 5 Este 8 Este 0 -- -- 39
2017-08-22 10:00:00 20.3 0 Calma 2 Noroeste 0 -- -- 61
2017-08-22 09:00:00 19.1 0 Calma 3 Noroeste 0 -- -- 58
2017-08-22 08:00:00 18.9 0 Calma 4 Oeste 0 -- -- 51
2017-08-22 07:00:00 18.6 2 Noroeste 6 Sudoeste 0 -- -- 52
2017-08-22 06:00:00 18.9 0 Calma 5 Oeste 0 -- -- 49
2017-08-22 05:00:00 19.2 0 Calma 5 Oeste 0 -- -- 51
2017-08-22 04:00:00 19.6 0 Calma 5 Noroeste 0 -- -- 46
2017-08-22 03:00:00 19.9 0 Calma 5 Sudoeste 0 -- -- 46
2017-08-22 02:00:00 19.9 0 Calma 4 Noroeste 0 -- -- 48
2017-08-22 01:00:00 19.5 0 Calma 4 Noroeste 0 -- -- 49
2017-08-22 00:00:00 19.6 2 Noroeste 5 Oeste 0 -- -- 45